DB0XHI-6 Weather Reports


time (UTC)temp
C
wind
direction
speed
KPH
gust
KPH
rain 1hr
cm
rain 24hr
cm
rain mn
cm
humidity
%
barometer
mb
20190424131005 35 135 3.2 0.0 0.00 0.00 0.00 20 996.5
20190424115005 32 315 4.8 0.0 0.00 0.00 0.00 28 997.2
20190424113004 35 135 1.6 0.0 0.00 0.00 0.00 26 997.8
20190424112004 34 338 3.2 0.0 0.00 0.00 0.00 27 998.2
20190424104002 31 45 0.0 0.0 0.00 0.00 0.00 29 998.6
20190424091004 25 338 3.2 0.0 0.00 0.00 0.00 35 999.1
20190424090005 25 202 0.0 0.0 0.00 0.00 0.00 36 998.8
20190424082004 24 135 0.0 0.0 0.00 0.00 0.00 40 998.9
20190424081004 24 292 0.0 0.0 0.00 0.00 0.00 40 998.8
20190424064005 16 292 0.0 0.0 0.00 0.00 0.00 63 997.7
20190424063006 13 90 0.0 0.0 0.00 0.00 0.00 69 997.6
20190424060005 11 68 0.0 0.0 0.00 0.00 0.00 71 997.4
20190424045003 6 90 1.6 0.0 0.00 0.00 0.00 86 997.1
20190424043003 5 112 0.0 0.0 0.00 0.00 0.00 83 996.7
20190424024004 6 248 0.0 0.0 0.00 0.00 0.00 79 995.9
20190424021003 7 180 0.0 0.0 0.00 0.00 0.00 78 995.5
20190424015004 7 68 0.0 0.0 0.00 0.00 0.00 78 995.2
20190424011005 7 68 0.0 0.0 0.00 0.00 0.00 74 995.3
20190424004005 8 270 0.0 0.0 0.00 0.00 0.00 72 995.2
20190423232004 11 270 0.0 0.0 0.00 0.00 0.00 68 994.8
20190423231003 10 270 0.0 0.0 0.00 0.00 0.00 68 994.9
20190423225002 10 270 0.0 0.0 0.00 0.00 0.00 67 994.8
20190423205004 12 90 0.0 0.0 0.00 0.00 0.00 59 994.4
20190423184003 17 45 0.0 0.0 0.00 0.00 0.00 43 993.9
20190423174003 22 90 3.2 0.0 0.00 0.00 0.00 35 993.5
20190423164006 26 112 3.2 0.0 0.00 0.00 0.00 31 993.4